Time;durP1;ratioP1;P1;durP2;ratioP2;P2;SDS_P1;SDS_P2;PMS_P1;PMS_P2;Temp;Humidity;BMP_temperature;BMP_pressure;BME280_temperature;BME280_humidity;BME280_pressure;Samples;Min_cycle;Max_cycle;Signal;HPM_P1;HPM_P2
2022/02/27 00:01:55;;;;;;;;;;;;;;;2.27;69.77;100779.13;1703895;84;20703;-65
2022/02/27 00:04:22;;;;;;;;;;;;;;;2.27;69.78;100780.48;1704064;84;20121;-65
2022/02/27 00:06:48;;;;;;;;;;;;;;;2.27;69.66;100782.67;1703976;84;20433;-64
2022/02/27 00:09:14;;;;;;;;;;;;;;;2.27;69.72;100777.78;1704064;84;20125;-65
2022/02/27 00:11:41;;;;;;;;;;;;;;;2.25;69.71;100778.02;1704015;84;21024;-66
2022/02/27 00:14:09;;;;;;;;;;;;;;;2.28;69.99;100779.44;1703862;84;20125;-66
2022/02/27 00:16:35;;;;;;;;;;;;;;;2.29;70.58;100774.31;1704026;84;20109;-66
2022/02/27 00:19:23;;;;;;;;;;;;;;;2.30;70.46;100775.96;1703992;84;20113;-65
2022/02/27 00:21:50;;;;;;;;;;;;;;;2.31;70.37;100772.20;1704098;84;20428;-65
2022/02/27 00:24:16;;;;;;;;;;;;;;;2.30;70.32;100773.25;1704031;84;21035;-66
2022/02/27 00:26:43;;;;;;;;;;;;;;;2.28;70.58;100773.48;1717474;83;20449;-66
2022/02/27 00:29:09;;;;;;;;;;;;;;;2.31;70.78;100770.84;1722310;83;20113;-65
2022/02/27 00:31:36;;;;;;;;;;;;;;;2.31;70.71;100778.41;1705028;83;20439;-65
2022/02/27 00:34:02;;;;;;;;;;;;;;;2.30;70.66;100773.25;1704493;83;20160;-66
2022/02/27 00:36:30;;;;;;;;;;;;;;;2.29;70.75;100771.07;1704913;84;21137;-66
2022/02/27 00:38:56;;;;;;;;;;;;;;;2.28;71.01;100772.66;1704952;84;20495;-66
2022/02/27 00:41:25;;;;;;;;;;;;;;;2.28;71.74;100772.66;1705309;83;20445;-66
2022/02/27 00:44:09;;;;;;;;;;;;;;;2.26;71.71;100768.83;1704877;84;20123;-66
2022/02/27 00:46:54;;;;;;;;;;;;;;;2.25;71.80;100768.53;1704955;84;20167;-66
2022/02/27 00:49:38;;;;;;;;;;;;;;;2.25;71.75;100766.34;1704377;84;20099;-66
2022/02/27 00:52:06;;;;;;;;;;;;;;;2.25;71.81;100773.13;1704678;84;20098;-66
2022/02/27 00:54:32;;;;;;;;;;;;;;;2.26;72.45;100768.00;1705281;83;20111;-66
2022/02/27 00:56:58;;;;;;;;;;;;;;;2.23;72.19;100764.39;1704999;84;20102;-66
2022/02/27 00:59:25;;;;;;;;;;;;;;;2.17;72.14;100758.55;1704959;84;20091;-66
2022/02/27 01:01:51;;;;;;;;;;;;;;;2.14;72.15;100759.83;1705117;84;21123;-66
2022/02/27 01:04:36;;;;;;;;;;;;;;;2.09;73.05;100750.75;1704908;84;20099;-65
2022/02/27 01:07:03;;;;;;;;;;;;;;;2.06;73.11;100755.27;1705064;84;20087;-66
2022/02/27 01:09:30;;;;;;;;;;;;;;;2.02;72.90;100751.37;1705000;84;20119;-65
2022/02/27 01:11:57;;;;;;;;;;;;;;;1.93;72.89;100759.81;1704876;84;20445;-65
2022/02/27 01:14:23;;;;;;;;;;;;;;;1.85;73.15;100750.66;1705220;84;21018;-65
2022/02/27 01:17:08;;;;;;;;;;;;;;;1.80;73.44;100746.98;1705019;84;20130;-64
2022/02/27 01:19:35;;;;;;;;;;;;;;;1.78;73.95;100749.91;1704935;84;20075;-64
2022/02/27 01:22:19;;;;;;;;;;;;;;;1.77;73.92;100753.67;1704920;84;20122;-64
2022/02/27 01:24:46;;;;;;;;;;;;;;;1.77;73.90;100749.62;1705060;84;20111;-66
2022/02/27 01:27:12;;;;;;;;;;;;;;;1.78;74.06;100749.91;1704007;84;21142;-65
2022/02/27 01:29:41;;;;;;;;;;;;;;;1.79;74.15;100748.03;1703931;83;20459;-66
2022/02/27 01:32:08;;;;;;;;;;;;;;;1.78;74.44;100747.20;1703863;84;20428;-65
2022/02/27 01:34:40;;;;;;;;;;;;;;;1.77;74.59;100750.97;1703911;84;20142;-65
2022/02/27 01:37:06;;;;;;;;;;;;;;;1.77;74.58;100744.20;1703945;84;20091;-66
2022/02/27 01:39:50;;;;;;;;;;;;;;;1.77;74.47;100747.44;1703932;84;20474;-65
2022/02/27 01:42:17;;;;;;;;;;;;;;;1.78;75.00;100746.38;1724117;83;20087;-65
2022/02/27 01:44:44;;;;;;;;;;;;;;;1.80;75.12;100746.45;1724178;83;20108;-65
2022/02/27 01:47:29;;;;;;;;;;;;;;;1.83;74.95;100743.28;1698394;84;20142;-65
2022/02/27 01:49:55;;;;;;;;;;;;;;;1.84;74.66;100742.23;1724229;83;20453;-65
2022/02/27 01:52:22;;;;;;;;;;;;;;;1.83;74.67;100744.64;1689459;85;21216;-65
2022/02/27 01:54:49;;;;;;;;;;;;;;;1.83;74.90;100747.34;1689553;85;20145;-65
2022/02/27 01:57:16;;;;;;;;;;;;;;;1.84;75.18;100737.34;1689417;85;20411;-65
2022/02/27 02:00:04;;;;;;;;;;;;;;;1.82;74.80;100741.63;1689367;85;20092;-65
2022/02/27 02:02:33;;;;;;;;;;;;;;;1.76;74.88;100742.55;1687811;85;20076;-65
2022/02/27 02:05:18;;;;;;;;;;;;;;;1.70;74.92;100738.08;1689444;85;20139;-64
2022/02/27 02:07:46;;;;;;;;;;;;;;;1.61;75.07;100740.80;1689478;84;20103;-64
2022/02/27 02:10:31;;;;;;;;;;;;;;;1.51;75.10;100741.86;1689440;85;20459;-65
2022/02/27 02:13:17;;;;;;;;;;;;;;;1.40;75.23;100747.50;1689555;85;20099;-65
2022/02/27 02:15:44;;;;;;;;;;;;;;;1.27;75.62;100743.59;1689446;85;20088;-65
2022/02/27 02:18:10;;;;;;;;;;;;;;;1.14;75.71;100741.07;1689319;84;21021;-65
2022/02/27 02:20:38;;;;;;;;;;;;;;;1.05;76.84;100741.89;1688909;84;20151;-65
2022/02/27 02:23:05;;;;;;;;;;;;;;;0.98;76.61;100747.89;1689498;85;20132;-65
2022/02/27 02:25:32;;;;;;;;;;;;;;;0.84;76.41;100746.36;1693901;85;20425;-65
2022/02/27 02:27:59;;;;;;;;;;;;;;;0.64;76.66;100745.19;1687356;84;20120;-66
2022/02/27 02:30:43;;;;;;;;;;;;;;;0.48;76.85;100749.30;1671050;85;20165;-65
2022/02/27 02:33:35;;;;;;;;;;;;;;;0.31;77.22;100751.72;1658215;86;20094;-65
2022/02/27 02:36:21;;;;;;;;;;;;;;;0.18;77.67;100754.51;1664391;86;20114;-64
2022/02/27 02:38:48;;;;;;;;;;;;;;;0.05;78.06;100744.31;1664291;86;20157;-64
2022/02/27 02:41:14;;;;;;;;;;;;;;;-0.07;78.35;100746.91;1647439;86;20125;-64
2022/02/27 02:43:47;;;;;;;;;;;;;;;-0.18;78.68;100752.98;1664692;86;21176;-64
2022/02/27 02:46:14;;;;;;;;;;;;;;;-0.31;79.06;100745.79;1664988;86;20168;-65
2022/02/27 02:48:40;;;;;;;;;;;;;;;-0.41;79.43;100748.13;1664924;86;20120;-65
2022/02/27 02:51:08;;;;;;;;;;;;;;;-0.52;79.73;100752.83;1650864;86;20160;-64
2022/02/27 02:53:36;;;;;;;;;;;;;;;-0.63;80.05;100758.41;1664944;86;20092;-64
2022/02/27 02:56:21;;;;;;;;;;;;;;;-0.72;80.42;100756.98;1664892;86;20099;-64
2022/02/27 02:58:48;;;;;;;;;;;;;;;-0.84;80.62;100754.11;1664871;86;20147;-64
2022/02/27 03:01:32;;;;;;;;;;;;;;;-0.95;81.01;100761.50;1664909;86;20447;-64
2022/02/27 03:04:00;;;;;;;;;;;;;;;-1.05;81.40;100767.31;1664789;86;20177;-64
2022/02/27 03:06:27;;;;;;;;;;;;;;;-1.14;81.73;100769.92;1664942;86;20461;-64
2022/02/27 03:08:53;;;;;;;;;;;;;;;-1.24;82.06;100768.20;1664848;86;21148;-64
2022/02/27 03:11:21;;;;;;;;;;;;;;;-1.32;82.39;100770.28;1664861;86;20088;-66
2022/02/27 03:13:48;;;;;;;;;;;;;;;-1.39;82.89;100782.41;1664944;86;20135;-66
2022/02/27 03:16:15;;;;;;;;;;;;;;;-1.47;83.31;100775.87;1664921;86;20148;-66
2022/02/27 03:18:42;;;;;;;;;;;;;;;-1.51;83.61;100789.44;1664937;86;20088;-65
2022/02/27 03:21:08;;;;;;;;;;;;;;;-1.57;83.91;100784.88;1664869;86;22065;-65
2022/02/27 03:23:35;;;;;;;;;;;;;;;-1.62;84.26;100785.50;1664887;86;20104;-65
2022/02/27 03:26:21;;;;;;;;;;;;;;;-1.65;84.50;100789.95;1664289;85;20165;-65
2022/02/27 03:29:05;;;;;;;;;;;;;;;-1.70;84.86;100790.56;1665338;85;20147;-65
2022/02/27 03:31:50;;;;;;;;;;;;;;;-1.72;85.44;100793.98;1701360;84;20127;-65
2022/02/27 03:34:34;;;;;;;;;;;;;;;-1.73;85.84;100794.18;1701417;84;20119;-65
2022/02/27 03:37:23;;;;;;;;;;;;;;;-1.77;86.11;100798.34;1701284;84;20430;-65
2022/02/27 03:39:49;;;;;;;;;;;;;;;-1.81;86.28;100801.13;1701221;84;20115;-65
2022/02/27 03:42:16;;;;;;;;;;;;;;;-1.83;86.52;100798.65;1701426;84;20387;-65
2022/02/27 03:45:03;;;;;;;;;;;;;;;-1.83;86.98;100803.20;1701270;84;20131;-65
2022/02/27 03:47:29;;;;;;;;;;;;;;;-1.82;87.37;100800.82;1701514;84;21916;-64
2022/02/27 03:50:15;;;;;;;;;;;;;;;-1.80;87.80;100810.87;1701136;84;20466;-64
2022/02/27 03:52:42;;;;;;;;;;;;;;;-1.75;88.17;100805.70;1701467;84;20099;-65
2022/02/27 03:55:10;;;;;;;;;;;;;;;-1.70;88.52;100803.20;1701196;84;20155;-64
2022/02/27 03:57:36;;;;;;;;;;;;;;;-1.66;88.56;100808.48;1701559;84;20115;-65
2022/02/27 04:00:05;;;;;;;;;;;;;;;-1.64;88.49;100812.31;1701165;84;21114;-65
2022/02/27 04:02:33;;;;;;;;;;;;;;;-1.63;88.35;100816.67;1701709;84;20111;-65
2022/02/27 04:04:59;;;;;;;;;;;;;;;-1.68;88.24;100814.07;1701303;84;20130;-65
2022/02/27 04:07:44;;;;;;;;;;;;;;;-1.72;88.14;100818.20;1701229;84;20123;-65
2022/02/27 04:10:11;;;;;;;;;;;;;;;-1.75;88.41;100819.16;1727448;83;20096;-65
2022/02/27 04:12:37;;;;;;;;;;;;;;;-1.78;88.46;100821.75;1696365;84;21080;-65
2022/02/27 04:15:22;;;;;;;;;;;;;;;-1.80;88.60;100823.81;1673432;86;20097;-65
2022/02/27 04:17:48;;;;;;;;;;;;;;;-1.86;88.35;100825.14;1674922;85;20125;-65
2022/02/27 04:20:15;;;;;;;;;;;;;;;-1.92;88.55;100827.30;1669367;86;20164;-65
2022/02/27 04:22:41;;;;;;;;;;;;;;;-1.92;88.90;100829.98;1673390;84;20092;-67
2022/02/27 04:25:09;;;;;;;;;;;;;;;-1.92;89.27;100829.98;1732531;82;21142;-65
2022/02/27 04:27:55;;;;;;;;;;;;;;;-1.87;89.85;100832.91;1713743;83;20149;-68
2022/02/27 04:30:22;;;;;;;;;;;;;;;-1.83;90.10;100839.02;1705376;83;20389;-68
2022/02/27 04:33:07;;;;;;;;;;;;;;;-1.77;90.55;100838.73;1747693;82;20118;-67
2022/02/27 04:35:33;;;;;;;;;;;;;;;-1.68;91.11;100840.17;1747391;82;20178;-66
2022/02/27 04:38:00;;;;;;;;;;;;;;;-1.58;91.50;100842.47;1745154;82;21140;-66
2022/02/27 04:40:44;;;;;;;;;;;;;;;-1.48;91.64;100842.38;1744929;82;20127;-67
2022/02/27 04:43:11;;;;;;;;;;;;;;;-1.39;91.70;100852.44;1744793;81;20115;-66
2022/02/27 04:45:39;;;;;;;;;;;;;;;-1.31;91.82;100846.85;1744898;82;20079;-63
2022/02/27 04:48:05;;;;;;;;;;;;;;;-1.21;92.06;100849.14;1745029;82;20418;-63
2022/02/27 04:50:32;;;;;;;;;;;;;;;-1.14;92.10;100849.94;1744730;82;21175;-63
2022/02/27 04:52:59;;;;;;;;;;;;;;;-1.09;92.10;100851.49;1744714;82;20091;-67
2022/02/27 04:55:25;;;;;;;;;;;;;;;-1.05;92.37;100848.70;1744844;82;20119;-66
2022/02/27 04:57:51;;;;;;;;;;;;;;;-0.97;92.68;100852.52;1719431;82;21904;-67
2022/02/27 05:00:18;;;;;;;;;;;;;;;-0.87;92.97;100854.28;1743880;82;20485;-66
2022/02/27 05:02:44;;;;;;;;;;;;;;;-0.79;92.89;100869.42;1745086;82;21061;-67
2022/02/27 05:05:10;;;;;;;;;;;;;;;-0.72;92.91;100866.19;1744681;82;20134;-66
2022/02/27 05:07:37;;;;;;;;;;;;;;;-0.67;92.84;100865.05;1744824;82;20091;-65
2022/02/27 05:10:05;;;;;;;;;;;;;;;-0.63;92.90;100864.94;1744941;82;20542;-66
2022/02/27 05:12:33;;;;;;;;;;;;;;;-0.58;92.99;100863.78;1745101;82;20122;-66
2022/02/27 05:14:59;;;;;;;;;;;;;;;-0.54;92.99;100857.42;1744790;82;21103;-66
2022/02/27 05:17:26;;;;;;;;;;;;;;;-0.48;93.32;100860.63;1744597;82;21539;-66
2022/02/27 05:19:52;;;;;;;;;;;;;;;-0.41;93.41;100859.56;1744863;82;20446;-66
2022/02/27 05:22:18;;;;;;;;;;;;;;;-0.31;93.42;100861.82;1745040;82;20110;-66
2022/02/27 05:24:44;;;;;;;;;;;;;;;-0.23;93.42;100862.11;1744804;82;20114;-66
2022/02/27 05:27:11;;;;;;;;;;;;;;;-0.16;93.29;100861.05;1744848;82;21035;-67
2022/02/27 05:29:37;;;;;;;;;;;;;;;-0.09;93.01;100861.84;1743051;82;20148;-68
2022/02/27 05:32:22;;;;;;;;;;;;;;;-0.05;92.72;100859.55;1729498;83;20085;-68
2022/02/27 05:34:48;;;;;;;;;;;;;;;-0.01;92.86;100862.12;1729566;83;20152;-67
2022/02/27 05:37:15;;;;;;;;;;;;;;;0.05;92.76;100863.11;1699034;84;20451;-67
2022/02/27 05:39:45;;;;;;;;;;;;;;;0.09;92.51;100867.87;1698973;84;21074;-67
2022/02/27 05:42:12;;;;;;;;;;;;;;;0.12;92.33;100869.31;1729490;83;20424;-67
2022/02/27 05:44:39;;;;;;;;;;;;;;;0.17;92.26;100862.22;1729458;83;20173;-67
2022/02/27 05:47:06;;;;;;;;;;;;;;;0.20;91.94;100858.27;1698956;84;20124;-67
2022/02/27 05:49:50;;;;;;;;;;;;;;;0.24;91.98;100864.37;1698935;84;20136;-66
2022/02/27 05:52:17;;;;;;;;;;;;;;;0.29;91.74;100868.60;1729543;83;21134;-66
2022/02/27 05:54:44;;;;;;;;;;;;;;;0.33;91.60;100859.55;1729428;83;20081;-65
2022/02/27 05:57:11;;;;;;;;;;;;;;;0.40;91.82;100860.33;1698932;84;20088;-66
2022/02/27 05:59:38;;;;;;;;;;;;;;;0.48;91.96;100853.33;1698874;84;20099;-65
2022/02/27 06:02:04;;;;;;;;;;;;;;;0.57;91.62;100858.77;1729666;83;20404;-66
2022/02/27 06:04:30;;;;;;;;;;;;;;;0.64;91.26;100859.52;1729597;83;21132;-66
2022/02/27 06:06:57;;;;;;;;;;;;;;;0.70;90.88;100856.47;1698931;84;20075;-65
2022/02/27 06:09:25;;;;;;;;;;;;;;;0.77;91.24;100861.30;1698922;84;20127;-65
2022/02/27 06:12:10;;;;;;;;;;;;;;;0.85;91.07;100866.97;1729612;83;20178;-64
2022/02/27 06:14:54;;;;;;;;;;;;;;;0.91;90.08;100868.27;1729503;83;20093;-66
2022/02/27 06:17:21;;;;;;;;;;;;;;;0.91;89.79;100865.56;1699078;84;21197;-65
2022/02/27 06:20:08;;;;;;;;;;;;;;;0.94;89.71;100870.53;1698795;84;20432;-65
2022/02/27 06:22:43;;;;;;;;;;;;;;;0.98;89.89;100866.34;1729673;83;20069;-65
2022/02/27 06:25:10;;;;;;;;;;;;;;;1.05;89.51;100873.58;1729066;83;20081;-65
2022/02/27 06:27:42;;;;;;;;;;;;;;;1.08;89.10;100868.55;1699130;84;20107;-67
2022/02/27 06:30:07;;;;;;;;;;;;;;;1.15;89.07;100875.25;1693353;84;21161;-65
2022/02/27 06:32:34;;;;;;;;;;;;;;;1.26;88.96;100877.20;1711597;84;20441;-65
2022/02/27 06:35:00;;;;;;;;;;;;;;;1.37;88.89;100881.06;1699534;84;20091;-65
2022/02/27 06:37:27;;;;;;;;;;;;;;;1.47;87.98;100880.86;1711720;83;20086;-66
2022/02/27 06:39:54;;;;;;;;;;;;;;;1.56;87.21;100878.69;1673783;84;20155;-65
2022/02/27 06:42:20;;;;;;;;;;;;;;;1.64;86.88;100874.34;1711627;84;20425;-65
2022/02/27 06:45:06;;;;;;;;;;;;;;;1.74;86.39;100876.48;1699230;84;20107;-66
2022/02/27 06:47:34;;;;;;;;;;;;;;;1.90;86.58;100872.66;1711646;83;20189;-65
2022/02/27 06:50:00;;;;;;;;;;;;;;;2.08;85.37;100868.28;1699158;84;20086;-66
2022/02/27 06:52:26;;;;;;;;;;;;;;;2.22;83.69;100876.02;1711559;84;20231;-66
2022/02/27 06:54:53;;;;;;;;;;;;;;;2.33;82.93;100869.79;1699311;84;21158;-66
2022/02/27 06:57:38;;;;;;;;;;;;;;;2.42;81.78;100873.53;1711545;84;20136;-66
2022/02/27 07:00:06;;;;;;;;;;;;;;;2.54;81.46;100877.12;1699372;84;20091;-66
2022/02/27 07:02:32;;;;;;;;;;;;;;;2.77;81.53;100876.36;1717321;83;20094;-66
2022/02/27 07:05:16;;;;;;;;;;;;;;;3.24;78.50;100866.39;1738272;81;20096;-66
2022/02/27 07:07:43;;;;;;;;;;;;;;;3.93;75.33;100870.91;1740695;82;21150;-66
2022/02/27 07:10:27;;;;;;;;;;;;;;;4.51;73.19;100871.23;1740610;82;20100;-66
2022/02/27 07:12:53;;;;;;;;;;;;;;;5.06;70.50;100869.72;1740205;82;20470;-68
2022/02/27 07:15:20;;;;;;;;;;;;;;;5.54;67.88;100861.73;1739700;81;20104;-65
2022/02/27 07:17:46;;;;;;;;;;;;;;;5.85;66.08;100866.22;1740546;82;20464;-68
2022/02/27 07:20:13;;;;;;;;;;;;;;;6.15;64.12;100866.64;1740594;82;20564;-67
2022/02/27 07:22:57;;;;;;;;;;;;;;;6.54;63.59;100867.33;1740459;82;20558;-68
2022/02/27 07:25:24;;;;;;;;;;;;;;;6.90;60.13;100863.59;1740453;82;20176;-71
2022/02/27 07:28:08;;;;;;;;;;;;;;;7.18;57.55;100871.45;1738636;82;20168;-75
2022/02/27 07:30:37;;;;;;;;;;;;;;;7.43;56.73;100868.09;1714215;82;37169;-69
2022/02/27 07:33:23;;;;;;;;;;;;;;;7.75;55.63;100873.46;1707709;84;20094;-66
2022/02/27 07:35:49;;;;;;;;;;;;;;;7.97;54.87;100867.84;1737126;82;20084;-66
2022/02/27 07:38:34;;;;;;;;;;;;;;;8.15;53.74;100871.98;1707872;84;20107;-64
2022/02/27 07:41:01;;;;;;;;;;;;;;;8.28;53.11;100865.48;1737115;82;20124;-66
2022/02/27 07:43:27;;;;;;;;;;;;;;;8.39;51.73;100862.81;1684312;83;20101;-68
2022/02/27 07:45:54;;;;;;;;;;;;;;;8.51;51.59;100860.66;1707724;84;21168;-68
2022/02/27 07:48:20;;;;;;;;;;;;;;;8.62;49.80;100862.88;1707668;84;20172;-69
2022/02/27 07:50:46;;;;;;;;;;;;;;;8.49;49.26;100864.20;1703737;84;20437;-66
2022/02/27 07:53:13;;;;;;;;;;;;;;;8.43;48.46;100868.02;1706383;84;20477;-69
2022/02/27 07:55:57;;;;;;;;;;;;;;;8.36;48.44;100868.27;1706154;84;20099;-70
2022/02/27 07:58:24;;;;;;;;;;;;;;;8.42;48.29;100865.01;1706275;84;21167;-69
2022/02/27 08:01:08;;;;;;;;;;;;;;;8.47;48.22;100867.21;1706112;84;20087;-69
2022/02/27 08:03:52;;;;;;;;;;;;;;;8.75;47.42;100858.21;1702924;84;20152;-69
2022/02/27 08:06:19;;;;;;;;;;;;;;;9.07;47.44;100860.70;1691382;85;20528;-69
2022/02/27 08:09:04;;;;;;;;;;;;;;;9.13;46.73;100860.44;1691402;85;20134;-69
2022/02/27 08:11:31;;;;;;;;;;;;;;;9.32;48.27;100856.56;1691233;85;21881;-67
2022/02/27 08:14:15;;;;;;;;;;;;;;;9.60;46.83;100858.72;1671213;85;20150;-70
2022/02/27 08:16:41;;;;;;;;;;;;;;;9.41;45.40;100860.39;1691253;85;20092;-69
2022/02/27 08:19:07;;;;;;;;;;;;;;;8.91;46.23;100868.91;1691078;85;20104;-69
2022/02/27 08:21:35;;;;;;;;;;;;;;;8.46;46.51;100865.56;1691154;84;20107;-69
2022/02/27 08:24:01;;;;;;;;;;;;;;;8.01;48.03;100868.13;1691251;85;21551;-70
2022/02/27 08:26:45;;;;;;;;;;;;;;;7.85;48.65;100871.33;1691197;85;20141;-70
2022/02/27 08:29:11;;;;;;;;;;;;;;;8.06;47.77;100865.42;1691167;85;20091;-70
2022/02/27 08:31:44;;;;;;;;;;;;;;;8.00;47.11;100870.58;1694121;84;20124;-69
2022/02/27 08:34:29;;;;;;;;;;;;;;;7.83;46.85;100867.49;1707637;84;20127;-69
2022/02/27 08:36:55;;;;;;;;;;;;;;;7.90;47.68;100869.45;1707785;84;21149;-68
2022/02/27 08:39:39;;;;;;;;;;;;;;;7.90;47.93;100862.61;1707421;84;20447;-72
2022/02/27 08:42:08;;;;;;;;;;;;;;;7.99;47.61;100861.55;1707434;84;20079;-68
2022/02/27 08:44:34;;;;;;;;;;;;;;;8.40;47.38;100857.61;1707614;84;20158;-66
2022/02/27 08:47:01;;;;;;;;;;;;;;;8.79;46.13;100851.09;1707802;84;20102;-71
2022/02/27 08:49:28;;;;;;;;;;;;;;;9.00;45.22;100850.02;1707474;84;21188;-73
2022/02/27 08:51:54;;;;;;;;;;;;;;;9.12;44.99;100845.64;1707404;84;20082;-74
2022/02/27 08:54:21;;;;;;;;;;;;;;;9.13;44.10;100849.48;1707513;84;20138;-73
2022/02/27 08:57:05;;;;;;;;;;;;;;;9.40;43.52;100842.84;1707458;84;20139;-71
2022/02/27 08:59:51;;;;;;;;;;;;;;;9.70;41.60;100846.09;1707595;84;20086;-69
2022/02/27 09:02:19;;;;;;;;;;;;;;;10.00;40.60;100843.22;1707453;84;21066;-69
2022/02/27 09:04:46;;;;;;;;;;;;;;;10.30;40.84;100844.22;1707110;84;20115;-69
2022/02/27 09:07:15;;;;;;;;;;;;;;;10.63;39.10;100840.70;1707243;84;20136;-67
2022/02/27 09:09:42;;;;;;;;;;;;;;;10.90;38.71;100837.50;1707182;84;20189;-73
2022/02/27 09:12:10;;;;;;;;;;;;;;;11.06;37.93;100836.24;1707183;84;20123;-73
2022/02/27 09:14:37;;;;;;;;;;;;;;;11.31;37.79;100837.13;1707046;84;21161;-71
2022/02/27 09:17:04;;;;;;;;;;;;;;;11.34;37.83;100833.25;1707188;84;20468;-71
2022/02/27 09:19:31;;;;;;;;;;;;;;;11.44;36.93;100827.66;1707169;84;20449;-70
2022/02/27 09:22:15;;;;;;;;;;;;;;;11.35;36.74;100826.64;1707260;84;20458;-72
2022/02/27 09:24:41;;;;;;;;;;;;;;;10.98;36.54;100829.16;1707180;84;20110;-71
2022/02/27 09:27:07;;;;;;;;;;;;;;;10.53;35.02;100818.25;1707173;84;21095;-68
2022/02/27 09:29:34;;;;;;;;;;;;;;;10.19;37.22;100826.43;1707007;82;20161;-72
2022/02/27 09:32:00;;;;;;;;;;;;;;;10.30;38.09;100814.85;1706957;84;20118;-71
2022/02/27 09:34:44;;;;;;;;;;;;;;;10.72;37.55;100814.28;1707173;84;20131;-75
2022/02/27 09:37:11;;;;;;;;;;;;;;;10.92;37.48;100813.30;1707191;84;20086;-72
2022/02/27 09:39:37;;;;;;;;;;;;;;;10.77;36.87;100815.62;1707429;84;21508;-77
2022/02/27 09:42:05;;;;;;;;;;;;;;;10.27;35.09;100814.59;1707055;84;20114;-72
2022/02/27 09:44:40;;;;;;;;;;;;;;;9.62;36.57;100811.83;1707130;84;20110;-70
2022/02/27 09:47:24;;;;;;;;;;;;;;;9.19;36.76;100813.31;1707288;84;20087;-69
2022/02/27 09:49:52;;;;;;;;;;;;;;;8.64;37.68;100814.15;1707301;84;20095;-68
2022/02/27 09:52:19;;;;;;;;;;;;;;;8.26;38.36;100811.58;1706973;84;21147;-66
2022/02/27 09:55:05;;;;;;;;;;;;;;;8.26;40.02;100808.84;1706980;82;20132;-66
2022/02/27 09:57:33;;;;;;;;;;;;;;;8.70;39.27;100808.92;1723917;82;20126;-67
2022/02/27 10:00:19;;;;;;;;;;;;;;;9.32;38.49;100804.49;1679223;82;20202;-67
2022/02/27 10:03:09;;;;;;;;;;;;;;;10.18;37.18;100807.47;1722789;82;20206;-66
2022/02/27 10:05:38;;;;;;;;;;;;;;;10.39;33.65;100806.84;1691176;84;21592;-67
2022/02/27 10:08:05;;;;;;;;;;;;;;;10.01;35.37;100797.41;1709684;84;20071;-66
2022/02/27 10:10:31;;;;;;;;;;;;;;;10.09;36.14;100794.89;1723417;82;20458;-66
2022/02/27 10:13:15;;;;;;;;;;;;;;;10.41;36.50;100790.88;1708382;84;20091;-66
2022/02/27 10:15:42;;;;;;;;;;;;;;;10.87;33.74;100792.19;1724528;82;20084;-66
2022/02/27 10:18:15;;;;;;;;;;;;;;;11.03;33.25;100790.11;1687752;84;21159;-66
2022/02/27 10:21:00;;;;;;;;;;;;;;;10.76;33.30;100787.88;1709103;84;20119;-65
2022/02/27 10:23:26;;;;;;;;;;;;;;;10.20;33.84;100792.95;1692059;84;20149;-65
2022/02/27 10:26:23;;;;;;;;;;;;;;;9.69;33.89;100798.66;1707759;82;20126;-65
2022/02/27 10:29:14;;;;;;;;;;;;;;;9.28;33.94;100793.81;1693598;82;20177;-67
2022/02/27 10:31:58;;;;;;;;;;;;;;;8.85;34.75;100788.40;1725907;82;20163;-65
2022/02/27 10:34:27;;;;;;;;;;;;;;;8.81;35.85;100790.04;1691585;84;20108;-65
2022/02/27 10:36:54;;;;;;;;;;;;;;;9.12;37.09;100784.83;1691678;83;20321;-66
2022/02/27 10:39:44;;;;;;;;;;;;;;;9.70;36.14;100770.68;1718329;82;20446;-65
2022/02/27 10:42:20;;;;;;;;;;;;;;;10.46;35.09;100768.33;1722338;82;20226;-66
2022/02/27 10:44:59;;;;;;;;;;;;;;;11.27;34.15;100771.47;1718451;82;21133;-66
2022/02/27 10:47:43;;;;;;;;;;;;;;;11.59;34.40;100777.14;1726387;82;20138;-66
2022/02/27 10:50:29;;;;;;;;;;;;;;;11.09;33.51;100784.83;1724043;82;20153;-66
2022/02/27 10:52:55;;;;;;;;;;;;;;;10.18;34.69;100782.22;1683749;84;20178;-65
2022/02/27 10:55:23;;;;;;;;;;;;;;;9.44;35.43;100780.91;1718115;82;20174;-67
2022/02/27 10:58:07;;;;;;;;;;;;;;;8.85;36.72;100785.66;1722457;82;21203;-65
2022/02/27 11:00:36;;;;;;;;;;;;;;;8.27;37.07;100778.20;1717537;82;20454;-66
2022/02/27 11:03:07;;;;;;;;;;;;;;;7.95;36.30;100775.67;1693434;84;20181;-66
2022/02/27 11:05:41;;;;;;;;;;;;;;;8.04;38.27;100777.34;1723850;81;20090;-66
2022/02/27 11:08:10;;;;;;;;;;;;;;;8.67;37.60;100773.33;1721162;82;20434;-65
2022/02/27 11:10:55;;;;;;;;;;;;;;;9.41;36.84;100770.50;1706969;84;21186;-66
2022/02/27 11:13:22;;;;;;;;;;;;;;;10.17;36.46;100768.78;1723461;82;20263;-65
2022/02/27 11:15:48;;;;;;;;;;;;;;;10.99;34.23;100760.74;1693917;84;20144;-65
2022/02/27 11:18:15;;;;;;;;;;;;;;;11.76;31.00;100759.61;1693162;84;20170;-65
2022/02/27 11:20:41;;;;;;;;;;;;;;;12.15;30.52;100753.05;1693180;84;20109;-66
2022/02/27 11:23:28;;;;;;;;;;;;;;;12.26;30.57;100752.34;1710797;82;20091;-66
2022/02/27 11:25:54;;;;;;;;;;;;;;;12.34;31.15;100744.80;1713234;82;20693;-67
2022/02/27 11:28:22;;;;;;;;;;;;;;;12.59;30.96;100747.72;1717322;82;20445;-65
2022/02/27 11:30:51;;;;;;;;;;;;;;;12.77;30.51;100745.47;1718330;82;20600;-63
2022/02/27 11:33:21;;;;;;;;;;;;;;;12.70;30.89;100737.62;1709800;84;20194;-65
2022/02/27 11:36:20;;;;;;;;;;;;;;;12.41;30.10;100743.30;1735160;82;21258;-65
2022/02/27 11:38:59;;;;;;;;;;;;;;;11.69;30.99;100755.02;1712327;82;20123;-64
2022/02/27 11:41:27;;;;;;;;;;;;;;;10.87;32.20;100753.73;1713179;82;20098;-65
2022/02/27 11:44:12;;;;;;;;;;;;;;;9.93;32.08;100750.25;1699579;82;20126;-69
2022/02/27 11:46:41;;;;;;;;;;;;;;;9.20;33.82;100747.83;1709756;84;20098;-65
2022/02/27 11:49:09;;;;;;;;;;;;;;;8.92;34.84;100752.80;1711057;84;21026;-65
2022/02/27 11:51:39;;;;;;;;;;;;;;;8.82;35.67;100752.80;1710959;84;20087;-68
2022/02/27 11:54:20;;;;;;;;;;;;;;;8.71;36.74;100757.19;1710948;84;20122;-68
2022/02/27 11:56:59;;;;;;;;;;;;;;;8.79;36.64;100751.16;1711152;84;20115;-66
2022/02/27 11:59:49;;;;;;;;;;;;;;;9.09;35.85;100743.47;1708594;84;20138;-74
2022/02/27 12:02:40;;;;;;;;;;;;;;;9.49;35.72;100744.70;1710643;84;21116;-71
2022/02/27 12:05:11;;;;;;;;;;;;;;;9.77;35.29;100739.11;1710151;84;20099;-70
2022/02/27 12:07:57;;;;;;;;;;;;;;;10.04;35.37;100741.42;1707363;84;20122;-70
2022/02/27 12:10:39;;;;;;;;;;;;;;;10.04;34.45;100725.51;1701175;84;20148;-73
2022/02/27 12:13:27;;;;;;;;;;;;;;;10.39;34.78;100732.73;1707275;84;20111;-69
2022/02/27 12:16:10;;;;;;;;;;;;;;;10.88;34.09;100732.58;1707429;84;21875;-74
2022/02/27 12:18:56;;;;;;;;;;;;;;;11.07;32.10;100733.45;1707379;84;20102;-70
2022/02/27 12:21:33;;;;;;;;;;;;;;;10.62;30.98;100733.34;1707296;84;20134;-69
2022/02/27 12:24:24;;;;;;;;;;;;;;;10.18;31.27;100737.50;1707198;84;20115;-70
2022/02/27 12:27:12;;;;;;;;;;;;;;;9.69;31.82;100728.73;1707227;84;20107;-63
2022/02/27 12:29:41;;;;;;;;;;;;;;;9.17;32.00;100731.94;1679457;82;21175;-66
2022/02/27 12:32:10;;;;;;;;;;;;;;;8.78;34.22;100722.96;1707464;84;20123;-66
2022/02/27 12:34:37;;;;;;;;;;;;;;;8.58;35.18;100726.55;1707025;84;20082;-64
2022/02/27 12:37:04;;;;;;;;;;;;;;;9.01;34.87;100727.04;1707469;84;20123;-65
2022/02/27 12:39:36;;;;;;;;;;;;;;;9.96;32.50;100719.25;1707506;84;20127;-68
2022/02/27 12:42:05;;;;;;;;;;;;;;;10.75;31.00;100716.76;1707375;84;21091;-68
2022/02/27 12:44:53;;;;;;;;;;;;;;;11.21;30.90;100715.73;1707130;84;20163;-69
2022/02/27 12:47:22;;;;;;;;;;;;;;;11.30;31.09;100719.48;1707256;84;20445;-70
2022/02/27 12:50:18;;;;;;;;;;;;;;;11.01;29.71;100717.31;1707127;84;20131;-70
2022/02/27 12:52:43;;;;;;;;;;;;;;;10.57;31.66;100718.28;1707006;84;20127;-71
2022/02/27 12:55:27;;;;;;;;;;;;;;;10.13;31.83;100719.70;1707326;84;21136;-66
2022/02/27 12:58:15;;;;;;;;;;;;;;;9.34;32.61;100722.00;1707093;84;20098;-64
2022/02/27 13:00:41;;;;;;;;;;;;;;;8.65;34.03;100727.65;1707343;84;20154;-65
2022/02/27 13:03:13;;;;;;;;;;;;;;;8.20;34.64;100731.14;1707216;84;20450;-65
2022/02/27 13:05:39;;;;;;;;;;;;;;;8.03;35.26;100728.67;1707285;84;20106;-69
2022/02/27 13:08:07;;;;;;;;;;;;;;;7.92;35.57;100733.29;1710159;84;21148;-70
2022/02/27 13:10:36;;;;;;;;;;;;;;;7.78;36.00;100730.78;1710055;84;20162;-64